sensor_id;sensor_type;location;lat;lon;timestamp;P1;durP1;ratioP1;P2;durP2;ratioP2
15925;SDS011;8062;53.882;10.642;2023-07-29T00:00:34;0.20;;;0.20;;
15925;SDS011;8062;53.882;10.642;2023-07-29T00:01:54;0.20;;;0.20;;
15925;SDS011;8062;53.882;10.642;2023-07-29T00:03:13;0.20;;;0.20;;
15925;SDS011;8062;53.882;10.642;2023-07-29T00:04:33;0.20;;;0.20;;
15925;SDS011;8062;53.882;10.642;2023-07-29T00:05:52;0.20;;;0.20;;
15925;SDS011;8062;53.882;10.642;2023-07-29T00:07:12;0.20;;;0.20;;
15925;SDS011;8062;53.882;10.642;2023-07-29T00:08:32;0.20;;;0.20;;
15925;SDS011;8062;53.882;10.642;2023-07-29T00:09:51;0.20;;;0.20;;
15925;SDS011;8062;53.882;10.642;2023-07-29T00:11:11;0.20;;;0.20;;
15925;SDS011;8062;53.882;10.642;2023-07-29T00:12:30;0.20;;;0.20;;
15925;SDS011;8062;53.882;10.642;2023-07-29T00:13:50;0.13;;;0.13;;
15925;SDS011;8062;53.882;10.642;2023-07-29T00:15:09;0.20;;;0.20;;
15925;SDS011;8062;53.882;10.642;2023-07-29T00:16:29;0.20;;;0.20;;
15925;SDS011;8062;53.882;10.642;2023-07-29T00:17:49;0.27;;;0.27;;
15925;SDS011;8062;53.882;10.642;2023-07-29T00:19:09;0.20;;;0.20;;
15925;SDS011;8062;53.882;10.642;2023-07-29T00:20:28;0.20;;;0.20;;
15925;SDS011;8062;53.882;10.642;2023-07-29T00:21:48;0.20;;;0.20;;
15925;SDS011;8062;53.882;10.642;2023-07-29T00:23:08;0.27;;;0.27;;
15925;SDS011;8062;53.882;10.642;2023-07-29T00:24:27;0.27;;;0.27;;
15925;SDS011;8062;53.882;10.642;2023-07-29T00:25:47;0.23;;;0.23;;
15925;SDS011;8062;53.882;10.642;2023-07-29T00:27:06;0.23;;;0.23;;
15925;SDS011;8062;53.882;10.642;2023-07-29T00:28:26;0.23;;;0.23;;
15925;SDS011;8062;53.882;10.642;2023-07-29T00:29:46;0.33;;;0.33;;
15925;SDS011;8062;53.882;10.642;2023-07-29T00:31:07;0.40;;;0.40;;
15925;SDS011;8062;53.882;10.642;2023-07-29T00:32:29;0.47;;;0.47;;
15925;SDS011;8062;53.882;10.642;2023-07-29T00:33:49;0.30;;;0.30;;
15925;SDS011;8062;53.882;10.642;2023-07-29T00:35:09;0.40;;;0.40;;
15925;SDS011;8062;53.882;10.642;2023-07-29T00:36:29;0.30;;;0.30;;
15925;SDS011;8062;53.882;10.642;2023-07-29T00:37:49;0.30;;;0.30;;
15925;SDS011;8062;53.882;10.642;2023-07-29T00:39:09;0.23;;;0.23;;
15925;SDS011;8062;53.882;10.642;2023-07-29T00:40:29;0.30;;;0.30;;
15925;SDS011;8062;53.882;10.642;2023-07-29T00:41:49;0.20;;;0.20;;
15925;SDS011;8062;53.882;10.642;2023-07-29T00:43:08;0.30;;;0.30;;
15925;SDS011;8062;53.882;10.642;2023-07-29T00:44:28;0.23;;;0.23;;
15925;SDS011;8062;53.882;10.642;2023-07-29T00:45:53;0.30;;;0.30;;
15925;SDS011;8062;53.882;10.642;2023-07-29T00:47:13;0.27;;;0.27;;
15925;SDS011;8062;53.882;10.642;2023-07-29T00:48:34;0.20;;;0.20;;
15925;SDS011;8062;53.882;10.642;2023-07-29T00:49:55;0.37;;;0.37;;
15925;SDS011;8062;53.882;10.642;2023-07-29T00:51:15;0.30;;;0.30;;
15925;SDS011;8062;53.882;10.642;2023-07-29T00:52:34;0.30;;;0.30;;
15925;SDS011;8062;53.882;10.642;2023-07-29T00:53:54;0.23;;;0.23;;
15925;SDS011;8062;53.882;10.642;2023-07-29T00:55:14;0.27;;;0.27;;
15925;SDS011;8062;53.882;10.642;2023-07-29T00:56:33;0.20;;;0.20;;
15925;SDS011;8062;53.882;10.642;2023-07-29T00:57:53;0.27;;;0.27;;
15925;SDS011;8062;53.882;10.642;2023-07-29T00:59:13;0.27;;;0.27;;
15925;SDS011;8062;53.882;10.642;2023-07-29T01:00:33;0.23;;;0.23;;
15925;SDS011;8062;53.882;10.642;2023-07-29T01:01:56;0.30;;;0.30;;
15925;SDS011;8062;53.882;10.642;2023-07-29T01:03:16;0.23;;;0.23;;
15925;SDS011;8062;53.882;10.642;2023-07-29T01:04:36;0.30;;;0.30;;
15925;SDS011;8062;53.882;10.642;2023-07-29T01:05:59;0.23;;;0.23;;
15925;SDS011;8062;53.882;10.642;2023-07-29T01:11:03;0.20;;;0.20;;
15925;SDS011;8062;53.882;10.642;2023-07-29T01:12:47;0.37;;;0.37;;
15925;SDS011;8062;53.882;10.642;2023-07-29T01:16:06;0.20;;;0.20;;
15925;SDS011;8062;53.882;10.642;2023-07-29T01:17:32;0.20;;;0.20;;
15925;SDS011;8062;53.882;10.642;2023-07-29T01:18:55;0.30;;;0.30;;
15925;SDS011;8062;53.882;10.642;2023-07-29T01:20:16;0.30;;;0.30;;
15925;SDS011;8062;53.882;10.642;2023-07-29T01:21:36;0.30;;;0.30;;
15925;SDS011;8062;53.882;10.642;2023-07-29T01:22:57;0.20;;;0.20;;
15925;SDS011;8062;53.882;10.642;2023-07-29T01:24:17;0.23;;;0.23;;
15925;SDS011;8062;53.882;10.642;2023-07-29T01:25:36;0.20;;;0.20;;
15925;SDS011;8062;53.882;10.642;2023-07-29T01:26:56;0.27;;;0.27;;
15925;SDS011;8062;53.882;10.642;2023-07-29T01:28:15;0.20;;;0.20;;
15925;SDS011;8062;53.882;10.642;2023-07-29T01:29:35;0.30;;;0.30;;
15925;SDS011;8062;53.882;10.642;2023-07-29T01:31:01;0.20;;;0.20;;
15925;SDS011;8062;53.882;10.642;2023-07-29T01:32:43;0.20;;;0.20;;
15925;SDS011;8062;53.882;10.642;2023-07-29T01:34:17;0.20;;;0.20;;
15925;SDS011;8062;53.882;10.642;2023-07-29T01:35:46;0.20;;;0.20;;
15925;SDS011;8062;53.882;10.642;2023-07-29T01:37:09;0.20;;;0.20;;
15925;SDS011;8062;53.882;10.642;2023-07-29T01:38:35;0.20;;;0.20;;
15925;SDS011;8062;53.882;10.642;2023-07-29T01:39:56;0.20;;;0.20;;
15925;SDS011;8062;53.882;10.642;2023-07-29T01:41:18;0.30;;;0.30;;
15925;SDS011;8062;53.882;10.642;2023-07-29T01:42:37;0.20;;;0.20;;
15925;SDS011;8062;53.882;10.642;2023-07-29T01:43:57;0.30;;;0.30;;
15925;SDS011;8062;53.882;10.642;2023-07-29T01:45:17;0.20;;;0.20;;
15925;SDS011;8062;53.882;10.642;2023-07-29T01:46:37;0.10;;;0.10;;
15925;SDS011;8062;53.882;10.642;2023-07-29T01:47:57;0.20;;;0.20;;
15925;SDS011;8062;53.882;10.642;2023-07-29T01:49:16;0.20;;;0.20;;
15925;SDS011;8062;53.882;10.642;2023-07-29T01:50:36;0.20;;;0.20;;
15925;SDS011;8062;53.882;10.642;2023-07-29T01:51:55;0.10;;;0.10;;
15925;SDS011;8062;53.882;10.642;2023-07-29T01:53:15;0.30;;;0.30;;
15925;SDS011;8062;53.882;10.642;2023-07-29T01:54:34;0.20;;;0.20;;
15925;SDS011;8062;53.882;10.642;2023-07-29T01:55:54;0.10;;;0.10;;
15925;SDS011;8062;53.882;10.642;2023-07-29T01:57:13;0.20;;;0.20;;
15925;SDS011;8062;53.882;10.642;2023-07-29T01:58:33;0.20;;;0.20;;
15925;SDS011;8062;53.882;10.642;2023-07-29T01:59:53;0.20;;;0.20;;
15925;SDS011;8062;53.882;10.642;2023-07-29T02:01:12;0.20;;;0.20;;
15925;SDS011;8062;53.882;10.642;2023-07-29T02:02:32;0.20;;;0.20;;
15925;SDS011;8062;53.882;10.642;2023-07-29T02:03:52;0.20;;;0.20;;
15925;SDS011;8062;53.882;10.642;2023-07-29T02:05:14;0.20;;;0.20;;
15925;SDS011;8062;53.882;10.642;2023-07-29T02:06:33;0.20;;;0.20;;
15925;SDS011;8062;53.882;10.642;2023-07-29T02:07:52;0.20;;;0.20;;
15925;SDS011;8062;53.882;10.642;2023-07-29T02:09:12;0.20;;;0.20;;
15925;SDS011;8062;53.882;10.642;2023-07-29T02:10:31;0.17;;;0.17;;
15925;SDS011;8062;53.882;10.642;2023-07-29T02:11:51;0.20;;;0.20;;
15925;SDS011;8062;53.882;10.642;2023-07-29T02:13:11;0.30;;;0.30;;
15925;SDS011;8062;53.882;10.642;2023-07-29T02:14:31;0.20;;;0.20;;
15925;SDS011;8062;53.882;10.642;2023-07-29T02:15:50;0.30;;;0.30;;
15925;SDS011;8062;53.882;10.642;2023-07-29T02:17:10;0.37;;;0.37;;
15925;SDS011;8062;53.882;10.642;2023-07-29T02:18:30;0.30;;;0.30;;
15925;SDS011;8062;53.882;10.642;2023-07-29T02:19:50;0.33;;;0.33;;
15925;SDS011;8062;53.882;10.642;2023-07-29T02:21:09;0.30;;;0.30;;
15925;SDS011;8062;53.882;10.642;2023-07-29T02:22:29;0.30;;;0.30;;
15925;SDS011;8062;53.882;10.642;2023-07-29T02:23:48;0.33;;;0.33;;
15925;SDS011;8062;53.882;10.642;2023-07-29T02:25:08;0.30;;;0.30;;
15925;SDS011;8062;53.882;10.642;2023-07-29T02:26:28;0.37;;;0.37;;
15925;SDS011;8062;53.882;10.642;2023-07-29T02:27:48;0.37;;;0.37;;
15925;SDS011;8062;53.882;10.642;2023-07-29T02:29:08;0.33;;;0.33;;
15925;SDS011;8062;53.882;10.642;2023-07-29T02:30:27;0.33;;;0.33;;
15925;SDS011;8062;53.882;10.642;2023-07-29T02:31:47;0.37;;;0.37;;
15925;SDS011;8062;53.882;10.642;2023-07-29T02:33:07;0.50;;;0.50;;
15925;SDS011;8062;53.882;10.642;2023-07-29T02:34:26;0.37;;;0.37;;
15925;SDS011;8062;53.882;10.642;2023-07-29T02:35:46;0.33;;;0.33;;
15925;SDS011;8062;53.882;10.642;2023-07-29T02:37:06;0.27;;;0.27;;
15925;SDS011;8062;53.882;10.642;2023-07-29T02:38:25;0.27;;;0.27;;
15925;SDS011;8062;53.882;10.642;2023-07-29T02:39:45;0.37;;;0.37;;
15925;SDS011;8062;53.882;10.642;2023-07-29T02:41:05;0.30;;;0.30;;
15925;SDS011;8062;53.882;10.642;2023-07-29T02:42:25;0.27;;;0.27;;
15925;SDS011;8062;53.882;10.642;2023-07-29T02:43:47;0.37;;;0.37;;
15925;SDS011;8062;53.882;10.642;2023-07-29T02:45:08;0.37;;;0.37;;
15925;SDS011;8062;53.882;10.642;2023-07-29T02:46:29;0.30;;;0.30;;
15925;SDS011;8062;53.882;10.642;2023-07-29T02:47:48;0.20;;;0.20;;
15925;SDS011;8062;53.882;10.642;2023-07-29T02:49:08;0.20;;;0.20;;
15925;SDS011;8062;53.882;10.642;2023-07-29T02:50:27;0.27;;;0.27;;
15925;SDS011;8062;53.882;10.642;2023-07-29T02:51:47;0.30;;;0.30;;
15925;SDS011;8062;53.882;10.642;2023-07-29T02:53:06;0.30;;;0.30;;
15925;SDS011;8062;53.882;10.642;2023-07-29T02:54:26;0.30;;;0.30;;
15925;SDS011;8062;53.882;10.642;2023-07-29T02:55:45;0.23;;;0.23;;
15925;SDS011;8062;53.882;10.642;2023-07-29T02:57:05;0.40;;;0.40;;
15925;SDS011;8062;53.882;10.642;2023-07-29T02:58:24;0.30;;;0.30;;
15925;SDS011;8062;53.882;10.642;2023-07-29T02:59:45;0.30;;;0.30;;
15925;SDS011;8062;53.882;10.642;2023-07-29T03:01:04;0.30;;;0.30;;
15925;SDS011;8062;53.882;10.642;2023-07-29T03:02:24;0.30;;;0.30;;
15925;SDS011;8062;53.882;10.642;2023-07-29T03:03:44;0.47;;;0.47;;
15925;SDS011;8062;53.882;10.642;2023-07-29T03:05:04;0.27;;;0.27;;
15925;SDS011;8062;53.882;10.642;2023-07-29T03:06:25;0.37;;;0.37;;
15925;SDS011;8062;53.882;10.642;2023-07-29T03:07:44;0.33;;;0.33;;
15925;SDS011;8062;53.882;10.642;2023-07-29T03:09:04;0.37;;;0.37;;
15925;SDS011;8062;53.882;10.642;2023-07-29T03:10:24;0.43;;;0.43;;
15925;SDS011;8062;53.882;10.642;2023-07-29T03:11:43;0.43;;;0.43;;
15925;SDS011;8062;53.882;10.642;2023-07-29T03:13:03;0.30;;;0.30;;
15925;SDS011;8062;53.882;10.642;2023-07-29T03:14:23;0.43;;;0.43;;
15925;SDS011;8062;53.882;10.642;2023-07-29T03:15:43;0.53;;;0.53;;
15925;SDS011;8062;53.882;10.642;2023-07-29T03:17:02;0.47;;;0.47;;
15925;SDS011;8062;53.882;10.642;2023-07-29T03:18:23;0.60;;;0.60;;
15925;SDS011;8062;53.882;10.642;2023-07-29T03:19:43;0.43;;;0.43;;
15925;SDS011;8062;53.882;10.642;2023-07-29T03:21:03;0.50;;;0.50;;
15925;SDS011;8062;53.882;10.642;2023-07-29T03:22:23;0.53;;;0.53;;
15925;SDS011;8062;53.882;10.642;2023-07-29T03:23:42;0.37;;;0.37;;
15925;SDS011;8062;53.882;10.642;2023-07-29T03:25:02;0.47;;;0.47;;
15925;SDS011;8062;53.882;10.642;2023-07-29T03:26:22;0.47;;;0.47;;
15925;SDS011;8062;53.882;10.642;2023-07-29T03:27:41;0.43;;;0.43;;
15925;SDS011;8062;53.882;10.642;2023-07-29T03:29:01;0.63;;;0.63;;
15925;SDS011;8062;53.882;10.642;2023-07-29T03:30:20;0.63;;;0.63;;
15925;SDS011;8062;53.882;10.642;2023-07-29T03:31:41;0.77;;;0.77;;
15925;SDS011;8062;53.882;10.642;2023-07-29T03:33:00;0.63;;;0.63;;
15925;SDS011;8062;53.882;10.642;2023-07-29T03:34:19;0.70;;;0.70;;
15925;SDS011;8062;53.882;10.642;2023-07-29T03:35:40;0.60;;;0.60;;
15925;SDS011;8062;53.882;10.642;2023-07-29T03:37:03;0.57;;;0.57;;
15925;SDS011;8062;53.882;10.642;2023-07-29T03:38:23;0.53;;;0.53;;
15925;SDS011;8062;53.882;10.642;2023-07-29T03:39:43;0.63;;;0.63;;
15925;SDS011;8062;53.882;10.642;2023-07-29T03:41:02;0.60;;;0.60;;
15925;SDS011;8062;53.882;10.642;2023-07-29T03:42:22;0.63;;;0.63;;
15925;SDS011;8062;53.882;10.642;2023-07-29T03:43:42;0.67;;;0.67;;
15925;SDS011;8062;53.882;10.642;2023-07-29T03:45:01;0.67;;;0.67;;
15925;SDS011;8062;53.882;10.642;2023-07-29T03:46:21;0.70;;;0.70;;
15925;SDS011;8062;53.882;10.642;2023-07-29T03:47:41;0.70;;;0.70;;
15925;SDS011;8062;53.882;10.642;2023-07-29T03:49:00;0.53;;;0.53;;
15925;SDS011;8062;53.882;10.642;2023-07-29T03:50:20;0.60;;;0.60;;
15925;SDS011;8062;53.882;10.642;2023-07-29T03:51:40;0.53;;;0.53;;
15925;SDS011;8062;53.882;10.642;2023-07-29T03:52:59;0.60;;;0.60;;
15925;SDS011;8062;53.882;10.642;2023-07-29T03:54:19;0.73;;;0.73;;
15925;SDS011;8062;53.882;10.642;2023-07-29T03:55:39;0.80;;;0.80;;
15925;SDS011;8062;53.882;10.642;2023-07-29T03:56:59;0.60;;;0.60;;
15925;SDS011;8062;53.882;10.642;2023-07-29T03:58:19;0.60;;;0.60;;
15925;SDS011;8062;53.882;10.642;2023-07-29T03:59:38;0.60;;;0.60;;
15925;SDS011;8062;53.882;10.642;2023-07-29T04:00:58;0.57;;;0.57;;
15925;SDS011;8062;53.882;10.642;2023-07-29T04:02:17;0.60;;;0.60;;
15925;SDS011;8062;53.882;10.642;2023-07-29T04:03:37;0.63;;;0.63;;
15925;SDS011;8062;53.882;10.642;2023-07-29T04:04:57;0.60;;;0.60;;
15925;SDS011;8062;53.882;10.642;2023-07-29T04:06:16;0.63;;;0.63;;
15925;SDS011;8062;53.882;10.642;2023-07-29T04:07:36;0.70;;;0.70;;
15925;SDS011;8062;53.882;10.642;2023-07-29T04:08:56;0.63;;;0.63;;
15925;SDS011;8062;53.882;10.642;2023-07-29T04:10:15;0.77;;;0.77;;
15925;SDS011;8062;53.882;10.642;2023-07-29T04:11:35;0.60;;;0.60;;
15925;SDS011;8062;53.882;10.642;2023-07-29T04:12:55;0.67;;;0.67;;
15925;SDS011;8062;53.882;10.642;2023-07-29T04:14:14;0.90;;;0.90;;
15925;SDS011;8062;53.882;10.642;2023-07-29T04:15:34;0.70;;;0.70;;
15925;SDS011;8062;53.882;10.642;2023-07-29T04:16:54;0.70;;;0.70;;
15925;SDS011;8062;53.882;10.642;2023-07-29T04:18:14;0.60;;;0.60;;
15925;SDS011;8062;53.882;10.642;2023-07-29T04:19:34;0.77;;;0.77;;
15925;SDS011;8062;53.882;10.642;2023-07-29T04:20:54;0.77;;;0.77;;
15925;SDS011;8062;53.882;10.642;2023-07-29T04:22:15;0.80;;;0.80;;
15925;SDS011;8062;53.882;10.642;2023-07-29T04:23:34;0.70;;;0.70;;
15925;SDS011;8062;53.882;10.642;2023-07-29T04:24:54;0.73;;;0.73;;
15925;SDS011;8062;53.882;10.642;2023-07-29T04:26:14;0.70;;;0.70;;
15925;SDS011;8062;53.882;10.642;2023-07-29T04:27:34;0.77;;;0.77;;
15925;SDS011;8062;53.882;10.642;2023-07-29T04:28:53;1.00;;;1.00;;
15925;SDS011;8062;53.882;10.642;2023-07-29T04:30:13;0.90;;;0.90;;
15925;SDS011;8062;53.882;10.642;2023-07-29T04:31:32;0.80;;;0.80;;
15925;SDS011;8062;53.882;10.642;2023-07-29T04:32:52;0.80;;;0.80;;
15925;SDS011;8062;53.882;10.642;2023-07-29T04:34:12;0.70;;;0.70;;
15925;SDS011;8062;53.882;10.642;2023-07-29T04:35:32;0.70;;;0.70;;
15925;SDS011;8062;53.882;10.642;2023-07-29T04:36:51;0.70;;;0.70;;
15925;SDS011;8062;53.882;10.642;2023-07-29T04:38:11;0.70;;;0.70;;
15925;SDS011;8062;53.882;10.642;2023-07-29T04:39:30;0.70;;;0.70;;
15925;SDS011;8062;53.882;10.642;2023-07-29T04:40:50;0.80;;;0.80;;
15925;SDS011;8062;53.882;10.642;2023-07-29T04:42:10;0.70;;;0.70;;
15925;SDS011;8062;53.882;10.642;2023-07-29T04:43:30;0.90;;;0.90;;
15925;SDS011;8062;53.882;10.642;2023-07-29T04:44:51;0.90;;;0.90;;
15925;SDS011;8062;53.882;10.642;2023-07-29T04:46:10;0.70;;;0.70;;
15925;SDS011;8062;53.882;10.642;2023-07-29T04:47:30;0.80;;;0.80;;
15925;SDS011;8062;53.882;10.642;2023-07-29T04:48:50;0.67;;;0.67;;
15925;SDS011;8062;53.882;10.642;2023-07-29T04:50:09;0.80;;;0.80;;
15925;SDS011;8062;53.882;10.642;2023-07-29T04:51:30;0.90;;;0.90;;
15925;SDS011;8062;53.882;10.642;2023-07-29T04:52:50;0.80;;;0.80;;
15925;SDS011;8062;53.882;10.642;2023-07-29T04:54:10;0.80;;;0.80;;
15925;SDS011;8062;53.882;10.642;2023-07-29T04:55:29;0.80;;;0.80;;
15925;SDS011;8062;53.882;10.642;2023-07-29T04:56:49;0.80;;;0.80;;
15925;SDS011;8062;53.882;10.642;2023-07-29T04:58:10;0.80;;;0.80;;
15925;SDS011;8062;53.882;10.642;2023-07-29T04:59:29;0.80;;;0.80;;
15925;SDS011;8062;53.882;10.642;2023-07-29T05:00:48;0.70;;;0.70;;
15925;SDS011;8062;53.882;10.642;2023-07-29T05:02:08;0.80;;;0.80;;
15925;SDS011;8062;53.882;10.642;2023-07-29T05:03:28;0.80;;;0.80;;
15925;SDS011;8062;53.882;10.642;2023-07-29T05:04:47;0.90;;;0.90;;
15925;SDS011;8062;53.882;10.642;2023-07-29T05:06:07;0.80;;;0.80;;
15925;SDS011;8062;53.882;10.642;2023-07-29T05:07:26;0.70;;;0.70;;
15925;SDS011;8062;53.882;10.642;2023-07-29T05:08:46;0.70;;;0.70;;
15925;SDS011;8062;53.882;10.642;2023-07-29T05:10:05;0.80;;;0.80;;
15925;SDS011;8062;53.882;10.642;2023-07-29T05:11:25;0.80;;;0.80;;
15925;SDS011;8062;53.882;10.642;2023-07-29T05:12:45;0.90;;;0.90;;
15925;SDS011;8062;53.882;10.642;2023-07-29T05:14:05;0.90;;;0.90;;
15925;SDS011;8062;53.882;10.642;2023-07-29T05:15:25;0.70;;;0.70;;
15925;SDS011;8062;53.882;10.642;2023-07-29T05:16:44;0.70;;;0.70;;
15925;SDS011;8062;53.882;10.642;2023-07-29T05:18:04;0.80;;;0.80;;
15925;SDS011;8062;53.882;10.642;2023-07-29T05:19:24;1.03;;;1.03;;
15925;SDS011;8062;53.882;10.642;2023-07-29T05:20:44;0.80;;;0.80;;
15925;SDS011;8062;53.882;10.642;2023-07-29T05:22:03;0.80;;;0.80;;
15925;SDS011;8062;53.882;10.642;2023-07-29T05:23:23;0.83;;;0.83;;
15925;SDS011;8062;53.882;10.642;2023-07-29T05:24:43;0.97;;;0.97;;
15925;SDS011;8062;53.882;10.642;2023-07-29T05:26:03;0.77;;;0.77;;
15925;SDS011;8062;53.882;10.642;2023-07-29T05:27:22;0.77;;;0.77;;
15925;SDS011;8062;53.882;10.642;2023-07-29T05:28:42;0.97;;;0.97;;
15925;SDS011;8062;53.882;10.642;2023-07-29T05:30:01;0.90;;;0.90;;
15925;SDS011;8062;53.882;10.642;2023-07-29T05:31:23;0.90;;;0.90;;
15925;SDS011;8062;53.882;10.642;2023-07-29T05:32:42;0.77;;;0.77;;
15925;SDS011;8062;53.882;10.642;2023-07-29T05:34:02;0.70;;;0.70;;
15925;SDS011;8062;53.882;10.642;2023-07-29T05:35:22;0.80;;;0.80;;
15925;SDS011;8062;53.882;10.642;2023-07-29T05:36:42;0.87;;;0.87;;
15925;SDS011;8062;53.882;10.642;2023-07-29T05:38:01;0.90;;;0.90;;
15925;SDS011;8062;53.882;10.642;2023-07-29T05:39:22;0.87;;;0.87;;
15925;SDS011;8062;53.882;10.642;2023-07-29T05:40:43;0.90;;;0.90;;
15925;SDS011;8062;53.882;10.642;2023-07-29T05:42:03;1.00;;;1.00;;
15925;SDS011;8062;53.882;10.642;2023-07-29T05:43:26;0.93;;;0.93;;
15925;SDS011;8062;53.882;10.642;2023-07-29T05:44:46;0.90;;;0.90;;
15925;SDS011;8062;53.882;10.642;2023-07-29T05:46:05;0.80;;;0.80;;
15925;SDS011;8062;53.882;10.642;2023-07-29T05:47:25;1.00;;;1.00;;
15925;SDS011;8062;53.882;10.642;2023-07-29T05:48:45;0.90;;;0.90;;
15925;SDS011;8062;53.882;10.642;2023-07-29T05:50:05;0.80;;;0.80;;
15925;SDS011;8062;53.882;10.642;2023-07-29T05:51:25;1.00;;;1.00;;
15925;SDS011;8062;53.882;10.642;2023-07-29T05:52:44;0.93;;;0.93;;
15925;SDS011;8062;53.882;10.642;2023-07-29T05:54:04;1.03;;;1.03;;
15925;SDS011;8062;53.882;10.642;2023-07-29T05:55:24;0.93;;;0.93;;
15925;SDS011;8062;53.882;10.642;2023-07-29T05:56:43;1.03;;;1.03;;
15925;SDS011;8062;53.882;10.642;2023-07-29T05:58:03;1.00;;;1.00;;
15925;SDS011;8062;53.882;10.642;2023-07-29T05:59:23;0.90;;;0.90;;
15925;SDS011;8062;53.882;10.642;2023-07-29T06:00:43;1.00;;;1.00;;
15925;SDS011;8062;53.882;10.642;2023-07-29T06:02:02;0.90;;;0.90;;
15925;SDS011;8062;53.882;10.642;2023-07-29T06:03:22;0.93;;;0.93;;
15925;SDS011;8062;53.882;10.642;2023-07-29T06:04:43;0.73;;;0.73;;
15925;SDS011;8062;53.882;10.642;2023-07-29T06:06:03;0.90;;;0.90;;
15925;SDS011;8062;53.882;10.642;2023-07-29T06:07:23;0.90;;;0.90;;
15925;SDS011;8062;53.882;10.642;2023-07-29T06:08:42;0.90;;;0.90;;
15925;SDS011;8062;53.882;10.642;2023-07-29T06:10:02;0.90;;;0.90;;
15925;SDS011;8062;53.882;10.642;2023-07-29T06:11:21;0.80;;;0.80;;
15925;SDS011;8062;53.882;10.642;2023-07-29T06:12:41;0.90;;;0.90;;
15925;SDS011;8062;53.882;10.642;2023-07-29T06:14:00;0.70;;;0.70;;
15925;SDS011;8062;53.882;10.642;2023-07-29T06:15:20;0.70;;;0.70;;
15925;SDS011;8062;53.882;10.642;2023-07-29T06:16:41;0.70;;;0.70;;
15925;SDS011;8062;53.882;10.642;2023-07-29T06:18:01;0.70;;;0.70;;
15925;SDS011;8062;53.882;10.642;2023-07-29T06:19:21;1.00;;;1.00;;
15925;SDS011;8062;53.882;10.642;2023-07-29T06:20:41;0.87;;;0.87;;
15925;SDS011;8062;53.882;10.642;2023-07-29T06:22:00;0.93;;;0.93;;
15925;SDS011;8062;53.882;10.642;2023-07-29T06:23:20;0.80;;;0.80;;
15925;SDS011;8062;53.882;10.642;2023-07-29T06:24:40;0.90;;;0.90;;
15925;SDS011;8062;53.882;10.642;2023-07-29T06:25:59;1.07;;;1.07;;
15925;SDS011;8062;53.882;10.642;2023-07-29T06:27:19;1.13;;;1.13;;
15925;SDS011;8062;53.882;10.642;2023-07-29T06:28:39;1.10;;;1.10;;
15925;SDS011;8062;53.882;10.642;2023-07-29T06:29:58;1.20;;;1.20;;
15925;SDS011;8062;53.882;10.642;2023-07-29T06:31:18;1.43;;;1.43;;
15925;SDS011;8062;53.882;10.642;2023-07-29T06:32:37;1.30;;;1.30;;
15925;SDS011;8062;53.882;10.642;2023-07-29T06:33:57;1.30;;;1.30;;
15925;SDS011;8062;53.882;10.642;2023-07-29T06:35:16;1.47;;;1.47;;
15925;SDS011;8062;53.882;10.642;2023-07-29T06:36:36;1.53;;;1.53;;
15925;SDS011;8062;53.882;10.642;2023-07-29T06:37:55;1.30;;;1.30;;
15925;SDS011;8062;53.882;10.642;2023-07-29T06:39:15;1.30;;;1.30;;
15925;SDS011;8062;53.882;10.642;2023-07-29T06:40:34;1.33;;;1.33;;
15925;SDS011;8062;53.882;10.642;2023-07-29T06:41:54;1.30;;;1.30;;
15925;SDS011;8062;53.882;10.642;2023-07-29T06:43:14;1.50;;;1.50;;
15925;SDS011;8062;53.882;10.642;2023-07-29T06:44:34;1.50;;;1.50;;
15925;SDS011;8062;53.882;10.642;2023-07-29T06:45:53;1.53;;;1.53;;
15925;SDS011;8062;53.882;10.642;2023-07-29T06:47:14;1.50;;;1.50;;
15925;SDS011;8062;53.882;10.642;2023-07-29T06:48:33;1.67;;;1.67;;
15925;SDS011;8062;53.882;10.642;2023-07-29T06:49:53;1.57;;;1.57;;
15925;SDS011;8062;53.882;10.642;2023-07-29T06:51:12;1.60;;;1.60;;
15925;SDS011;8062;53.882;10.642;2023-07-29T06:52:32;1.57;;;1.57;;
15925;SDS011;8062;53.882;10.642;2023-07-29T06:53:51;1.90;;;1.80;;
15925;SDS011;8062;53.882;10.642;2023-07-29T06:55:11;1.90;;;1.83;;
15925;SDS011;8062;53.882;10.642;2023-07-29T06:56:31;1.63;;;1.63;;
15925;SDS011;8062;53.882;10.642;2023-07-29T06:57:50;1.90;;;1.80;;
15925;SDS011;8062;53.882;10.642;2023-07-29T06:59:10;1.47;;;1.47;;
15925;SDS011;8062;53.882;10.642;2023-07-29T07:00:29;1.20;;;1.20;;
15925;SDS011;8062;53.882;10.642;2023-07-29T07:01:49;0.60;;;0.60;;
15925;SDS011;8062;53.882;10.642;2023-07-29T07:03:08;0.37;;;0.37;;
15925;SDS011;8062;53.882;10.642;2023-07-29T07:04:28;0.20;;;0.20;;
15925;SDS011;8062;53.882;10.642;2023-07-29T07:05:47;0.20;;;0.20;;
15925;SDS011;8062;53.882;10.642;2023-07-29T07:07:06;0.20;;;0.20;;
15925;SDS011;8062;53.882;10.642;2023-07-29T07:08:26;0.20;;;0.20;;
15925;SDS011;8062;53.882;10.642;2023-07-29T07:09:45;0.20;;;0.20;;
15925;SDS011;8062;53.882;10.642;2023-07-29T07:11:05;0.20;;;0.20;;
15925;SDS011;8062;53.882;10.642;2023-07-29T07:12:24;0.25;;;0.25;;
15925;SDS011;8062;53.882;10.642;2023-07-29T07:13:44;0.30;;;0.30;;
15925;SDS011;8062;53.882;10.642;2023-07-29T07:15:03;0.23;;;0.23;;
15925;SDS011;8062;53.882;10.642;2023-07-29T07:16:23;0.30;;;0.30;;
15925;SDS011;8062;53.882;10.642;2023-07-29T07:17:43;0.20;;;0.20;;
15925;SDS011;8062;53.882;10.642;2023-07-29T07:19:02;0.20;;;0.20;;
15925;SDS011;8062;53.882;10.642;2023-07-29T07:20:22;0.20;;;0.20;;
15925;SDS011;8062;53.882;10.642;2023-07-29T07:21:41;0.33;;;0.33;;
15925;SDS011;8062;53.882;10.642;2023-07-29T07:23:01;0.43;;;0.43;;
15925;SDS011;8062;53.882;10.642;2023-07-29T07:24:20;0.47;;;0.47;;
15925;SDS011;8062;53.882;10.642;2023-07-29T07:25:40;0.52;;;0.52;;
15925;SDS011;8062;53.882;10.642;2023-07-29T07:26:59;0.43;;;0.43;;
15925;SDS011;8062;53.882;10.642;2023-07-29T07:28:19;0.30;;;0.30;;
15925;SDS011;8062;53.882;10.642;2023-07-29T07:29:38;0.30;;;0.30;;
15925;SDS011;8062;53.882;10.642;2023-07-29T07:30:58;0.40;;;0.40;;
15925;SDS011;8062;53.882;10.642;2023-07-29T07:32:18;0.22;;;0.22;;
15925;SDS011;8062;53.882;10.642;2023-07-29T07:33:37;0.30;;;0.30;;
15925;SDS011;8062;53.882;10.642;2023-07-29T07:34:57;0.20;;;0.20;;
15925;SDS011;8062;53.882;10.642;2023-07-29T07:36:16;0.20;;;0.20;;
15925;SDS011;8062;53.882;10.642;2023-07-29T07:37:36;0.20;;;0.20;;
15925;SDS011;8062;53.882;10.642;2023-07-29T07:38:56;0.20;;;0.20;;
15925;SDS011;8062;53.882;10.642;2023-07-29T07:40:15;0.10;;;0.10;;
15925;SDS011;8062;53.882;10.642;2023-07-29T07:41:35;0.08;;;0.08;;
15925;SDS011;8062;53.882;10.642;2023-07-29T07:42:54;0.10;;;0.10;;
15925;SDS011;8062;53.882;10.642;2023-07-29T07:44:14;0.00;;;0.00;;
15925;SDS011;8062;53.882;10.642;2023-07-29T07:45:36;0.00;;;0.00;;
15925;SDS011;8062;53.882;10.642;2023-07-29T07:46:56;0.00;;;0.00;;
15925;SDS011;8062;53.882;10.642;2023-07-29T07:48:15;0.00;;;0.00;;
15925;SDS011;8062;53.882;10.642;2023-07-29T07:49:35;0.00;;;0.00;;
15925;SDS011;8062;53.882;10.642;2023-07-29T07:50:55;0.10;;;0.10;;
15925;SDS011;8062;53.882;10.642;2023-07-29T07:52:14;0.10;;;0.10;;
15925;SDS011;8062;53.882;10.642;2023-07-29T07:53:34;0.10;;;0.10;;
15925;SDS011;8062;53.882;10.642;2023-07-29T07:54:54;0.10;;;0.10;;
15925;SDS011;8062;53.882;10.642;2023-07-29T07:56:13;0.00;;;0.00;;
15925;SDS011;8062;53.882;10.642;2023-07-29T07:57:34;0.00;;;0.00;;
15925;SDS011;8062;53.882;10.642;2023-07-29T07:58:53;0.00;;;0.00;;
15925;SDS011;8062;53.882;10.642;2023-07-29T08:00:13;0.10;;;0.10;;
15925;SDS011;8062;53.882;10.642;2023-07-29T08:01:36;0.10;;;0.10;;
15925;SDS011;8062;53.882;10.642;2023-07-29T08:02:56;0.10;;;0.10;;
15925;SDS011;8062;53.882;10.642;2023-07-29T08:04:16;0.10;;;0.10;;
15925;SDS011;8062;53.882;10.642;2023-07-29T08:05:35;0.10;;;0.10;;
15925;SDS011;8062;53.882;10.642;2023-07-29T08:06:55;0.10;;;0.10;;
15925;SDS011;8062;53.882;10.642;2023-07-29T08:08:14;0.10;;;0.10;;